Weather reports worldwide

Advertisment
Quintanar De La Orden, Spain (8275): temperature & dewpoint: 10.07.2018 18:00:00 - 16.07.2018 18:00:00 (CEST)Quintanar De La Orden, Spain (8275): wind speed & gusts: 10.07.2018 18:00:00 - 16.07.2018 18:00:00 (CEST)Quintanar De La Orden, Spain (8275): wind direction: 10.07.2018 18:00:00 - 16.07.2018 18:00:00 (CEST)Quintanar De La Orden, Spain (8275): reduced air pressure: 10.07.2018 18:00:00 - 16.07.2018 18:00:00 (CEST)Quintanar De La Orden, Spain (8275): precipitation: 10.07.2018 18:00:00 - 16.07.2018 18:00:00 (CEST)
Date & Time tt [°C] td [°C] ff [km/h] ff [kn] fx [km/h] fx [kn] dd ppp [hPa] rr [mm]
16.07.2018 18:00:00 - - - - - - - - -
16.07.2018 17:00:00 29,1 11,7 7 4 25 14 NNW 1009,9 0,0
16.07.2018 16:00:00 28,5 10,6 9 5 26 14 NNW 1010,1 0,0
16.07.2018 15:00:00 26,7 10,4 8 4 29 15 NNW 1010,6 0,0
16.07.2018 14:00:00 26,4 11,3 7 4 27 14 NNW 1010,7 -
16.07.2018 13:00:00 25,0 11,6 12 7 27 14 NNW 1011,0 0,0
16.07.2018 12:00:00 23,7 12,0 8 4 22 12 NNW 1011,5 0,0
16.07.2018 11:00:00 21,1 11,7 9 5 25 13 NNW 1012,0 0,0
16.07.2018 10:00:00 19,6 11,9 11 6 27 15 NNW 1012,6 0,0
16.07.2018 09:00:00 18,2 11,8 6 3 19 10 NW 1012,8 0,0
16.07.2018 08:00:00 16,2 10,3 4 2 16 9 NW 1013,5 -
16.07.2018 07:00:00 15,9 9,3 4 2 13 7 NW 1013,7 0,0
16.07.2018 06:00:00 16,3 9,0 10 5 19 11 NW 1013,4 0,0
16.07.2018 05:00:00 16,9 8,1 9 5 19 10 NW 1013,4 0,0
16.07.2018 04:00:00 - - 8 5 21 11 NW - 0,0
16.07.2018 03:00:00 - - 10 5 20 11 NW - 0,0
16.07.2018 02:00:00 19,2 7,0 11 6 20 11 NW 1012,8 -
16.07.2018 01:00:00 - - 5 3 23 12 NNW - 0,0
16.07.2018 00:00:00 - - 3 2 10 5 NNW - 0,0
15.07.2018 23:00:00 - - 4 2 21 12 N - 0,0
15.07.2018 22:00:00 - - 8 4 29 15 NNW - 0,0
15.07.2018 21:00:00 - - 10 6 29 16 NNW - 0,0
15.07.2018 20:00:00 28,2 8,9 12 6 32 17 NNW 1010,4 -
15.07.2018 19:00:00 29,4 9,0 5 3 29 16 NW 1009,9 0,0
15.07.2018 18:00:00 28,9 8,0 10 6 42 23 WSW 1010,1 0,0
15.07.2018 17:00:00 29,2 7,7 14 8 34 19 WSW 1010,0 0,0
15.07.2018 16:00:00 28,2 7,4 16 9 32 18 WSW 1010,4 0,0
15.07.2018 15:00:00 27,4 7,8 16 8 32 17 WSW 1010,5 0,0
15.07.2018 14:00:00 26,6 6,5 13 7 30 16 WSW 1010,6 -
15.07.2018 13:00:00 25,2 8,3 15 8 31 17 WSW 1011,0 0,0
15.07.2018 12:00:00 24,2 9,3 17 9 29 16 WSW 1011,3 0,0
15.07.2018 11:00:00 22,6 9,4 11 6 24 13 WSW 1011,7 0,0
15.07.2018 10:00:00 20,8 9,4 6 3 15 8 WSW 1012,3 0,0
15.07.2018 09:00:00 19,2 9,4 5 3 9 5 SSW 1012,6 0,0
15.07.2018 08:00:00 17,8 7,8 3 2 10 6 S 1013,2 -
15.07.2018 07:00:00 17,4 6,5 4 2 11 6 SSW 1013,3 0,0
15.07.2018 06:00:00 - - 2 1 10 5 S - 0,0
15.07.2018 05:00:00 - - 1 1 8 4 SSE - 0,0
15.07.2018 04:00:00 - - 2 1 5 3 SSW - 0,0
15.07.2018 03:00:00 - - 1 1 10 6 W - 0,0
15.07.2018 02:00:00 - - 2 1 10 6 NW - -
15.07.2018 01:00:00 - - 3 2 12 7 WSW - 0,0
15.07.2018 00:00:00 - - 9 5 14 8 WSW - 0,0
14.07.2018 23:00:00 - - 7 4 14 8 WSW - 0,0
14.07.2018 22:00:00 - - 7 4 16 9 WSW - 0,0
14.07.2018 21:00:00 - - 10 5 29 15 WSW - 0,0
14.07.2018 20:00:00 30,8 5,9 14 7 35 19 WSW 1009,6 -
14.07.2018 19:00:00 31,6 6,5 15 8 40 21 WSW 1009,4 0,0
14.07.2018 18:00:00 31,5 7,8 16 9 39 21 WSW 1009,3 0,0
14.07.2018 17:00:00 31,1 6,2 21 11 36 19 WSW 1009,6 0,0
14.07.2018 16:00:00 32,8 11,3 13 7 35 19 SW 1009,0 0,0
14.07.2018 15:00:00 30,1 10,0 14 8 32 17 SW 1009,7 0,0
14.07.2018 14:00:00 28,6 8,8 15 8 29 16 WSW 1010,0 -
14.07.2018 13:00:00 28,0 9,8 12 7 27 14 SW 1010,2 0,0
14.07.2018 12:00:00 26,6 10,8 8 4 25 14 WSW 1010,5 0,0
14.07.2018 11:00:00 24,4 11,3 4 2 11 6 WSW 1011,2 0,0
14.07.2018 10:00:00 - - 3 2 10 6 SSW - 0,0
14.07.2018 09:00:00 - - 5 3 8 4 S - 0,0
14.07.2018 08:00:00 17,9 6,4 2 1 6 4 SSE 1013,1 -
14.07.2018 07:00:00 17,3 5,3 3 2 9 5 NNE 1013,4 0,0
14.07.2018 06:00:00 - - 0 0 8 4 SSE - 0,0
14.07.2018 05:00:00 19,4 5,8 3 2 8 4 SSW 1012,5 0,0
14.07.2018 04:00:00 - - 3 2 11 6 SSW - 0,0
14.07.2018 03:00:00 - - 6 4 14 8 S - 0,0
14.07.2018 02:00:00 23,5 16,3 5 3 16 9 SSE 1011,3 -
14.07.2018 01:00:00 24,8 16,5 7 4 20 11 SSE 1010,9 0,0
14.07.2018 00:00:00 26,1 16,0 9 5 27 15 SSE 1010,6 0,0
13.07.2018 23:00:00 28,6 10,3 5 3 16 9 SSE 1010,1 0,0
13.07.2018 22:00:00 29,2 8,8 3 2 22 12 SSW 1010,0 0,0
13.07.2018 21:00:00 30,8 11,2 10 5 20 11 WSW 1009,5 0,0
13.07.2018 20:00:00 31,8 11,6 9 5 20 11 WSW 1009,3 -
13.07.2018 19:00:00 32,5 13,2 7 4 26 14 SW 1009,0 0,0
13.07.2018 18:00:00 32,5 13,7 5 3 30 16 S 1009,0 0,0
13.07.2018 17:00:00 32,6 13,8 6 4 25 13 S 1009,0 0,0
13.07.2018 16:00:00 31,9 13,7 4 2 16 9 SSW 1009,2 0,0
13.07.2018 15:00:00 30,2 13,1 5 3 18 10 S 1009,6 0,0
13.07.2018 14:00:00 - - 5 3 21 12 SSE - -
13.07.2018 13:00:00 - - 6 4 22 12 SSE - 0,0
13.07.2018 12:00:00 26,5 17,0 9 5 27 15 S 1010,4 0,0
13.07.2018 11:00:00 24,9 17,6 10 5 31 17 S 1010,8 0,0
13.07.2018 10:00:00 22,9 18,0 12 7 31 17 SSE 1011,3 0,0
13.07.2018 09:00:00 21,5 18,3 9 5 29 16 SSE 1011,6 0,0
13.07.2018 08:00:00 - - 8 4 25 14 SSE - -
13.07.2018 07:00:00 20,2 17,9 9 5 29 16 SSE 1012,2 0,0
13.07.2018 06:00:00 20,6 17,8 11 6 31 17 SSE 1012,0 0,0
13.07.2018 05:00:00 21,1 17,7 12 6 32 18 SSE 1011,8 0,0
13.07.2018 04:00:00 21,2 17,2 13 7 34 18 SSE 1011,9 0,0
13.07.2018 03:00:00 22,1 16,8 12 6 36 19 SSE 1011,6 0,0
13.07.2018 02:00:00 22,8 16,8 10 6 37 20 SSE 1011,4 -
13.07.2018 01:00:00 24,4 15,6 8 4 23 13 SSE 1011,1 0,0
13.07.2018 00:00:00 - - 2 1 7 4 SSE - 0,0
12.07.2018 23:00:00 26,9 11,0 1 0 5 3 ENE 1010,5 0,0
12.07.2018 22:00:00 - - 0 0 12 7 E - 0,0
12.07.2018 21:00:00 30,3 12,2 4 2 19 10 S 1009,6 0,0
12.07.2018 20:00:00 32,7 14,3 2 1 9 5 SSW 1009,0 -
12.07.2018 19:00:00 30,9 13,7 4 2 16 9 SW 1009,5 0,0
12.07.2018 18:00:00 32,6 15,2 4 2 22 12 SW 1009,1 0,0
12.07.2018 17:00:00 31,0 13,8 2 1 18 10 NNW 1009,4 0,0
12.07.2018 16:00:00 32,7 15,7 4 2 17 9 SSE 1008,7 0,0
12.07.2018 15:00:00 29,5 14,0 5 3 18 10 NNW 1009,8 0,0
12.07.2018 14:00:00 28,4 14,6 6 3 17 9 NNW 1010,0 -
12.07.2018 13:00:00 28,3 15,3 4 2 22 12 SSE 1009,9 0,0
12.07.2018 12:00:00 26,6 16,0 3 2 17 9 WSW 1010,5 0,0
12.07.2018 11:00:00 24,2 15,4 4 2 12 7 SW 1011,1 0,0
12.07.2018 10:00:00 22,4 14,2 5 3 15 8 SSW 1011,6 0,0
12.07.2018 09:00:00 20,7 13,4 5 3 16 8 S 1012,2 0,0
12.07.2018 08:00:00 19,0 11,1 4 2 16 9 S 1012,7 -
12.07.2018 07:00:00 - - 2 1 10 6 SE - 0,0
12.07.2018 06:00:00 - - 3 2 9 5 SSW - 0,0
12.07.2018 05:00:00 - - 3 2 9 5 SSE - 0,0
12.07.2018 04:00:00 - - 3 1 10 5 SSE - 0,0
12.07.2018 03:00:00 20,7 7,7 3 1 9 5 SSW 1012,3 0,0
12.07.2018 02:00:00 - - 5 3 10 5 SSW - -
12.07.2018 01:00:00 - - 3 2 13 7 NNW - 0,0
12.07.2018 00:00:00 23,5 6,7 6 3 16 9 NNW 1011,5 0,0
11.07.2018 23:00:00 25,4 7,6 2 1 14 7 NNW 1011,0 0,0
11.07.2018 22:00:00 27,3 9,2 2 1 23 13 N 1010,5 0,0
11.07.2018 21:00:00 29,5 11,1 7 4 33 18 NNW 1009,9 0,0
11.07.2018 20:00:00 31,4 13,7 11 6 31 17 NNW 1009,4 -
11.07.2018 19:00:00 31,8 12,1 12 6 31 17 WSW 1009,0 0,0
11.07.2018 18:00:00 32,6 13,3 17 9 31 17 WSW 1009,0 0,0
11.07.2018 17:00:00 32,6 13,8 9 5 36 20 WSW 1009,0 0,0
11.07.2018 16:00:00 32,6 13,8 16 9 36 19 WSW 1009,0 0,0
11.07.2018 15:00:00 30,6 12,0 19 10 36 19 WSW 1009,6 0,0
11.07.2018 14:00:00 30,9 14,5 4 2 29 16 WSW 1009,4 -
11.07.2018 13:00:00 29,4 14,4 8 4 23 12 WSW 1009,8 0,0
11.07.2018 12:00:00 - - 11 6 21 12 WSW - 0,0
11.07.2018 11:00:00 - - 3 2 13 7 W - 0,0
11.07.2018 10:00:00 23,4 12,4 8 4 15 8 WSW 1011,4 0,0
11.07.2018 09:00:00 - - 1 1 8 5 SSE - 0,0
11.07.2018 08:00:00 - - 2 1 10 5 NW - -
11.07.2018 07:00:00 - - 3 2 9 5 W - 0,0
11.07.2018 06:00:00 19,2 6,7 2 1 7 4 WSW 1012,8 0,0
11.07.2018 05:00:00 - - 0 0 9 5 N - 0,0
11.07.2018 04:00:00 - - 2 1 9 5 NE - 0,0
11.07.2018 03:00:00 22,2 7,6 3 2 9 5 WSW 1011,9 0,0
11.07.2018 02:00:00 24,9 8,4 3 1 12 6 N 1011,1 -
11.07.2018 01:00:00 25,8 7,8 3 2 14 8 N 1010,9 0,0
11.07.2018 00:00:00 27,0 8,0 11 6 20 11 NW 1010,6 0,0
10.07.2018 23:00:00 28,8 9,0 7 4 18 10 NW 1010,1 0,0
10.07.2018 22:00:00 30,6 10,5 5 3 12 7 NNW 1009,6 0,0
10.07.2018 21:00:00 32,9 12,0 3 1 16 9 N 1009,0 0,0
10.07.2018 20:00:00 33,9 12,8 3 2 23 12 N 1008,7 -
10.07.2018 19:00:00 34,1 13,0 3 2 22 12 WSW 1008,7 0,0
10.07.2018 18:00:00 34,8 13,6 4 2 29 16 NNW 1008,5 0,0

tt = temperature
td = dewpoint
ff = wind speed
fx = gusts
dd = wind direction
ppp = reduced air pressure
rr = precipitation

Next stations